createdAt,value
2022-10-22T00:00:11.398Z,4.72
2022-10-22T00:02:38.710Z,3.33
2022-10-22T00:05:06.201Z,4.44
2022-10-22T00:07:33.453Z,5.50
2022-10-22T00:10:00.524Z,4.53
2022-10-22T00:12:27.754Z,5.09
2022-10-22T00:14:54.612Z,5.06
2022-10-22T00:17:21.723Z,4.36
2022-10-22T00:19:48.670Z,4.11
2022-10-22T00:22:15.871Z,5.47
2022-10-22T00:24:43.320Z,3.04
2022-10-22T00:27:12.414Z,5.41
2022-10-22T00:29:39.430Z,5.02
2022-10-22T00:32:06.888Z,2.62
2022-10-22T00:34:33.896Z,4.99
2022-10-22T00:37:01.252Z,2.88
2022-10-22T00:39:28.886Z,4.99
2022-10-22T00:41:57.255Z,4.96
2022-10-22T00:45:01.211Z,5.00
2022-10-22T00:47:31.936Z,2.63
2022-10-22T00:50:00.394Z,4.76
2022-10-22T00:52:27.694Z,4.90
2022-10-22T00:54:54.956Z,4.53
2022-10-22T00:57:22.897Z,3.26
2022-10-22T00:59:50.269Z,3.24
2022-10-22T01:02:17.491Z,4.42
2022-10-22T01:04:45.371Z,3.58
2022-10-22T01:07:21.362Z,4.08
2022-10-22T01:10:23.692Z,4.87
2022-10-22T01:12:50.771Z,4.71
2022-10-22T01:16:03.630Z,4.54
2022-10-22T01:18:55.538Z,4.10
2022-10-22T01:21:31.140Z,4.25
2022-10-22T01:24:49.816Z,3.66
2022-10-22T01:27:40.060Z,4.06
2022-10-22T01:30:09.316Z,2.90
2022-10-22T01:33:01.888Z,4.05
2022-10-22T01:35:35.875Z,2.85
2022-10-22T01:38:07.654Z,4.06
2022-10-22T01:40:35.920Z,2.97
2022-10-22T01:43:06.072Z,2.43
2022-10-22T01:45:47.257Z,3.21
2022-10-22T01:48:35.633Z,2.95
2022-10-22T01:51:34.351Z,4.32
2022-10-22T01:54:27.773Z,4.44
2022-10-22T01:56:54.603Z,4.55
2022-10-22T01:59:52.251Z,4.63
2022-10-22T02:02:25.037Z,4.55
2022-10-22T02:05:02.252Z,2.94
2022-10-22T02:07:33.198Z,4.57
2022-10-22T02:10:01.007Z,4.50
2022-10-22T02:12:31.332Z,4.43
2022-10-22T02:15:00.883Z,2.39
2022-10-22T02:17:32.216Z,4.22
2022-10-22T02:20:09.013Z,4.16
2022-10-22T02:22:36.075Z,4.19
2022-10-22T02:25:04.365Z,4.04
2022-10-22T02:27:45.578Z,2.81
2022-10-22T02:30:18.957Z,3.63
2022-10-22T02:33:03.958Z,2.89
2022-10-22T02:35:31.888Z,2.66
2022-10-22T02:37:59.919Z,3.92
2022-10-22T02:40:28.885Z,2.79
2022-10-22T02:42:55.694Z,2.78
2022-10-22T02:45:22.951Z,2.65
2022-10-22T02:47:50.513Z,4.03
2022-10-22T02:50:17.733Z,3.74
2022-10-22T02:52:44.519Z,2.84
2022-10-22T02:55:11.675Z,2.14
2022-10-22T02:57:38.915Z,2.88
2022-10-22T03:00:07.918Z,2.50
2022-10-22T03:02:35.338Z,3.37
2022-10-22T03:05:02.478Z,3.02
2022-10-22T03:07:29.257Z,2.99
2022-10-22T03:09:56.129Z,2.52
2022-10-22T03:12:23.013Z,2.80
2022-10-22T03:14:49.766Z,3.87
2022-10-22T03:17:16.853Z,2.97
2022-10-22T03:19:43.695Z,2.45
2022-10-22T03:22:15.431Z,3.90
2022-10-22T03:24:46.474Z,2.30
2022-10-22T03:27:16.962Z,2.52
2022-10-22T03:29:44.431Z,3.67
2022-10-22T03:32:11.719Z,3.59
2022-10-22T03:34:38.474Z,3.58
2022-10-22T03:37:05.216Z,3.18
2022-10-22T03:39:34.671Z,2.08
2022-10-22T03:42:02.339Z,3.46
2022-10-22T03:44:30.538Z,3.38
2022-10-22T03:47:01.632Z,3.54
2022-10-22T03:49:29.572Z,2.46
2022-10-22T03:51:56.457Z,2.56
2022-10-22T03:54:23.715Z,0.94
2022-10-22T03:56:50.509Z,2.49
2022-10-22T03:59:17.324Z,1.84
2022-10-22T04:01:44.250Z,3.48
2022-10-22T04:04:10.937Z,2.70
2022-10-22T04:06:37.635Z,3.27
2022-10-22T04:09:04.995Z,3.27
2022-10-22T04:11:31.960Z,3.35
2022-10-22T04:13:58.775Z,3.43
2022-10-22T04:16:28.705Z,2.23
2022-10-22T04:18:58.154Z,2.48
2022-10-22T04:21:25.016Z,2.15
2022-10-22T04:23:53.117Z,3.66
2022-10-22T04:26:20.775Z,1.43
2022-10-22T04:28:49.078Z,3.93
2022-10-22T04:31:19.606Z,3.85
2022-10-22T04:33:46.877Z,2.64
2022-10-22T04:36:18.615Z,3.84
2022-10-22T04:38:47.762Z,4.16
2022-10-22T04:41:19.793Z,3.33
2022-10-22T04:43:47.292Z,4.15
2022-10-22T04:46:16.537Z,2.22
2022-10-22T04:48:44.909Z,4.00
2022-10-22T04:51:17.781Z,2.42
2022-10-22T04:53:45.910Z,2.73
2022-10-22T04:56:19.959Z,4.24
2022-10-22T04:58:48.716Z,2.62
2022-10-22T05:01:41.623Z,4.44
2022-10-22T05:04:13.716Z,4.34
2022-10-22T05:06:40.892Z,2.18
2022-10-22T05:09:14.187Z,2.94
2022-10-22T05:11:43.333Z,2.83
2022-10-22T05:14:11.277Z,2.84
2022-10-22T05:16:38.743Z,4.03
2022-10-22T05:19:06.674Z,3.00
2022-10-22T05:21:33.964Z,3.51
2022-10-22T05:24:01.284Z,2.55
2022-10-22T05:26:29.274Z,4.02
2022-10-22T05:28:56.322Z,2.47
2022-10-22T05:31:23.232Z,2.80
2022-10-22T05:33:50.153Z,3.66
2022-10-22T05:36:19.955Z,2.29
2022-10-22T05:38:47.321Z,4.07
2022-10-22T05:41:22.674Z,4.12
2022-10-22T05:43:50.236Z,3.98
2022-10-22T05:46:23.138Z,3.81
2022-10-22T05:48:55.167Z,4.20
2022-10-22T05:51:23.332Z,3.92
2022-10-22T05:53:59.533Z,4.32
2022-10-22T05:56:28.000Z,4.53
2022-10-22T05:58:55.241Z,4.36
2022-10-22T06:01:33.597Z,4.68
2022-10-22T06:04:03.171Z,3.70
2022-10-22T06:06:34.457Z,5.15
2022-10-22T06:09:18.597Z,4.20
2022-10-22T06:11:46.166Z,3.90
2022-10-22T06:14:13.484Z,4.87
2022-10-22T06:16:40.485Z,6.27
2022-10-22T06:19:08.333Z,5.83
2022-10-22T06:21:35.592Z,4.43
2022-10-22T06:24:02.490Z,6.02
2022-10-22T06:26:30.294Z,4.27
2022-10-22T06:28:57.658Z,6.68
2022-10-22T06:31:25.795Z,6.92
2022-10-22T06:33:52.791Z,6.35
2022-10-22T06:36:22.281Z,7.08
2022-10-22T06:38:52.912Z,6.07
2022-10-22T06:41:22.162Z,7.25
2022-10-22T06:43:51.430Z,7.38
2022-10-22T06:46:21.814Z,7.92
2022-10-22T06:49:12.155Z,8.32
2022-10-22T06:51:39.179Z,7.93
2022-10-22T06:54:06.070Z,7.44
2022-10-22T06:56:32.926Z,7.27
2022-10-22T06:58:59.976Z,7.73
2022-10-22T07:01:31.322Z,7.68
2022-10-22T07:03:58.412Z,8.02
2022-10-22T07:06:26.399Z,9.02
2022-10-22T07:08:54.747Z,9.67
2022-10-22T07:11:24.932Z,9.95
2022-10-22T07:13:54.517Z,10.06
2022-10-22T07:16:21.645Z,10.26
2022-10-22T07:18:49.046Z,10.06
2022-10-22T07:21:18.657Z,9.04
2022-10-22T07:23:45.573Z,8.53
2022-10-22T07:26:14.246Z,9.56
2022-10-22T07:28:41.553Z,11.11
2022-10-22T07:31:10.358Z,9.36
2022-10-22T07:33:38.320Z,10.96
2022-10-22T07:36:08.113Z,11.64
2022-10-22T07:38:35.958Z,10.10
2022-10-22T07:41:03.124Z,11.64
2022-10-22T07:43:30.356Z,11.23
2022-10-22T07:45:57.082Z,11.14
2022-10-22T07:48:25.036Z,12.29
2022-10-22T07:50:52.578Z,12.14
2022-10-22T07:53:19.436Z,11.65
2022-10-22T07:55:49.084Z,12.97
2022-10-22T07:58:16.916Z,11.69
2022-10-22T08:00:43.797Z,11.45
2022-10-22T08:03:14.211Z,12.09
2022-10-22T08:05:41.533Z,12.68
2022-10-22T08:08:08.273Z,12.79
2022-10-22T08:10:34.991Z,12.93
2022-10-22T08:13:02.162Z,14.12
2022-10-22T08:15:29.434Z,13.81
2022-10-22T08:17:56.365Z,14.07
2022-10-22T08:20:23.486Z,13.16
2022-10-22T08:22:50.272Z,14.31
2022-10-22T08:25:17.282Z,14.98
2022-10-22T08:27:45.973Z,14.87
2022-10-22T08:30:13.894Z,15.15
2022-10-22T08:32:41.555Z,14.40
2022-10-22T08:35:08.984Z,13.24
2022-10-22T08:37:36.272Z,12.99
2022-10-22T08:40:04.929Z,14.94
2022-10-22T08:43:02.572Z,14.11
2022-10-22T08:45:57.645Z,14.51
2022-10-22T08:48:41.853Z,14.85
2022-10-22T08:51:13.171Z,15.87
2022-10-22T08:53:51.476Z,15.47
2022-10-22T08:56:18.638Z,16.19
2022-10-22T08:58:58.873Z,15.46
2022-10-22T09:01:35.393Z,16.02
2022-10-22T09:04:17.372Z,16.26
2022-10-22T09:06:44.112Z,16.21
2022-10-22T09:09:15.862Z,16.68
2022-10-22T09:11:47.342Z,16.94
2022-10-22T09:14:22.653Z,17.32
2022-10-22T09:17:02.966Z,18.08
2022-10-22T09:19:38.772Z,18.21
2022-10-22T09:22:32.854Z,16.90
2022-10-22T09:25:12.918Z,17.49
2022-10-22T09:27:40.324Z,16.63
2022-10-22T09:30:11.590Z,18.23
2022-10-22T09:32:38.435Z,17.72
2022-10-22T09:35:11.297Z,17.72
2022-10-22T09:37:49.031Z,15.53
2022-10-22T09:40:17.073Z,18.13
2022-10-22T09:42:45.796Z,17.46
2022-10-22T09:45:21.117Z,19.19
2022-10-22T09:48:03.739Z,19.55
2022-10-22T09:50:45.813Z,19.89
2022-10-22T09:53:22.418Z,17.90
2022-10-22T09:58:23.591Z,20.00
2022-10-22T10:01:00.637Z,20.11
2022-10-22T10:03:31.679Z,19.64
2022-10-22T10:06:03.276Z,19.28
2022-10-22T10:08:33.737Z,19.43
2022-10-22T10:11:06.755Z,18.08
2022-10-22T10:13:54.591Z,19.70
2022-10-22T10:17:03.113Z,19.79
2022-10-22T10:19:51.255Z,19.66
2022-10-22T10:22:29.996Z,19.10
2022-10-22T10:25:27.729Z,20.15
2022-10-22T10:28:07.917Z,20.41
2022-10-22T10:30:43.935Z,21.23
2022-10-22T10:33:21.894Z,19.49
2022-10-22T10:36:10.012Z,20.06
2022-10-22T10:39:06.754Z,19.41
2022-10-22T10:41:59.038Z,20.24
2022-10-22T10:44:56.807Z,20.48
2022-10-22T10:47:39.221Z,21.15
2022-10-22T10:50:35.315Z,21.84
2022-10-22T10:53:28.236Z,22.27
2022-10-22T10:56:25.233Z,22.45
2022-10-22T10:59:12.437Z,22.73
2022-10-22T11:01:57.830Z,22.68
2022-10-22T11:04:34.097Z,21.78
2022-10-22T11:07:11.428Z,23.18
2022-10-22T11:10:02.892Z,20.82
2022-10-22T11:12:36.139Z,20.77
2022-10-22T11:15:13.818Z,21.09
2022-10-22T11:17:45.695Z,20.24
2022-10-22T11:20:35.518Z,22.03
2022-10-22T11:23:24.760Z,22.51
2022-10-22T11:25:52.115Z,20.73
2022-10-22T11:28:43.630Z,21.51
2022-10-22T11:31:14.801Z,21.86
2022-10-22T11:33:57.340Z,22.89
2022-10-22T11:36:33.403Z,23.41
2022-10-22T11:39:03.133Z,22.93
2022-10-22T11:41:32.914Z,22.80
2022-10-22T11:44:20.957Z,22.79
2022-10-22T11:46:53.458Z,23.53
2022-10-22T11:49:25.514Z,22.91
2022-10-22T11:52:05.474Z,23.77
2022-10-22T11:54:32.734Z,23.85
2022-10-22T11:57:21.693Z,23.14
2022-10-22T11:59:52.096Z,22.59
2022-10-22T12:02:37.586Z,21.13
2022-10-22T12:05:22.730Z,22.76
2022-10-22T12:08:01.395Z,23.22
2022-10-22T12:10:35.531Z,23.94
2022-10-22T12:13:12.238Z,22.40
2022-10-22T12:15:49.273Z,22.16
2022-10-22T12:18:16.967Z,22.03
2022-10-22T12:20:44.071Z,22.13
2022-10-22T12:23:12.856Z,23.10
2022-10-22T12:25:39.714Z,22.48
2022-10-22T12:28:12.053Z,22.79
2022-10-22T12:30:39.396Z,23.84
2022-10-22T12:33:08.271Z,22.58
2022-10-22T12:35:43.990Z,22.63
2022-10-22T12:38:19.891Z,22.38
2022-10-22T12:40:48.902Z,23.15
2022-10-22T12:43:37.357Z,23.36
2022-10-22T12:46:04.619Z,22.37
2022-10-22T12:48:36.207Z,22.09
2022-10-22T12:51:05.337Z,22.85
2022-10-22T12:53:35.647Z,22.69
2022-10-22T12:56:05.394Z,22.72
2022-10-22T12:58:59.069Z,22.38
2022-10-22T13:01:29.477Z,22.81
2022-10-22T13:04:27.523Z,22.86
2022-10-22T13:07:19.901Z,23.10
2022-10-22T13:10:15.766Z,22.99
2022-10-22T13:12:48.951Z,22.86
2022-10-22T13:15:29.716Z,22.91
2022-10-22T13:18:07.791Z,22.91
2022-10-22T13:20:34.958Z,21.86
2022-10-22T13:23:04.112Z,22.82
2022-10-22T13:25:33.579Z,22.33
2022-10-22T13:28:18.652Z,22.73
2022-10-22T13:31:08.483Z,21.13
2022-10-22T13:33:41.212Z,22.46
2022-10-22T13:36:14.100Z,22.23
2022-10-22T13:38:41.173Z,22.21
2022-10-22T13:41:27.872Z,21.60
2022-10-22T13:43:55.370Z,21.18
2022-10-22T13:46:23.681Z,20.24
2022-10-22T13:48:53.133Z,21.04
2022-10-22T13:51:41.572Z,20.76
2022-10-22T13:54:21.416Z,19.60
2022-10-22T13:56:48.396Z,18.48
2022-10-22T13:59:17.239Z,20.17
2022-10-22T14:01:47.120Z,20.18
2022-10-22T14:04:14.231Z,20.11
2022-10-22T14:06:41.056Z,20.49
2022-10-22T14:09:14.308Z,20.83
2022-10-22T14:11:41.230Z,20.33
2022-10-22T14:14:07.954Z,20.86
2022-10-22T14:16:36.363Z,20.57
2022-10-22T14:19:07.809Z,20.74
2022-10-22T14:21:37.393Z,21.35
2022-10-22T14:24:06.180Z,21.49
2022-10-22T14:26:35.371Z,21.76
2022-10-22T14:29:11.353Z,21.18
2022-10-22T14:31:51.679Z,21.04
2022-10-22T14:34:21.792Z,21.56
2022-10-22T14:36:48.670Z,20.26
2022-10-22T14:39:15.612Z,20.65
2022-10-22T14:41:46.670Z,21.63
2022-10-22T14:44:17.765Z,21.62
2022-10-22T14:46:47.894Z,20.28
2022-10-22T14:49:14.754Z,20.35
2022-10-22T14:51:41.794Z,20.06
2022-10-22T14:54:08.880Z,19.67
2022-10-22T14:59:02.434Z,19.60
2022-10-22T15:01:29.397Z,19.16
2022-10-22T15:03:56.272Z,19.11
2022-10-22T15:06:23.095Z,18.61
2022-10-22T15:08:50.011Z,18.28
2022-10-22T15:11:17.517Z,19.70
2022-10-22T15:13:44.254Z,18.73
2022-10-22T15:16:15.034Z,18.67
2022-10-22T15:18:42.255Z,19.18
2022-10-22T15:21:15.816Z,18.98
2022-10-22T15:23:42.893Z,17.59
2022-10-22T15:26:10.876Z,18.50
2022-10-22T15:28:38.989Z,18.24
2022-10-22T15:31:07.258Z,16.86
2022-10-22T15:33:34.483Z,18.03
2022-10-22T15:36:14.155Z,17.89
2022-10-22T15:38:40.975Z,17.67
2022-10-22T15:41:08.870Z,16.80
2022-10-22T15:43:36.257Z,15.65
2022-10-22T15:46:18.175Z,17.29
2022-10-22T15:48:45.401Z,17.11
2022-10-22T15:51:16.294Z,15.67
2022-10-22T15:53:44.054Z,15.75
2022-10-22T15:56:11.733Z,15.12
2022-10-22T15:58:39.997Z,14.65
2022-10-22T16:01:11.692Z,15.64
2022-10-22T16:03:39.071Z,15.22
2022-10-22T16:06:07.452Z,14.67
2022-10-22T16:08:34.467Z,14.36
2022-10-22T16:11:01.597Z,14.65
2022-10-22T16:13:28.389Z,13.81
2022-10-22T16:15:55.365Z,14.53
2022-10-22T16:18:22.595Z,15.13
2022-10-22T16:20:49.597Z,14.77
2022-10-22T16:23:16.409Z,14.11
2022-10-22T16:25:43.715Z,15.01
2022-10-22T16:28:11.717Z,14.55
2022-10-22T16:30:39.051Z,14.69
2022-10-22T16:33:07.495Z,14.24
2022-10-22T16:35:34.474Z,13.08
2022-10-22T16:38:01.254Z,13.55
2022-10-22T16:40:28.406Z,13.62
2022-10-22T16:42:55.136Z,13.76
2022-10-22T16:45:21.933Z,13.75
2022-10-22T16:47:49.294Z,13.52
2022-10-22T16:50:16.313Z,14.40
2022-10-22T16:52:43.078Z,14.83
2022-10-22T16:55:10.272Z,13.97
2022-10-22T16:57:37.194Z,14.72
2022-10-22T17:00:05.937Z,14.87
2022-10-22T17:02:32.957Z,14.66
2022-10-22T17:04:59.695Z,13.70
2022-10-22T17:07:26.406Z,12.90
2022-10-22T17:09:53.296Z,14.00
2022-10-22T17:12:20.118Z,14.62
2022-10-22T17:14:46.998Z,13.61
2022-10-22T17:17:13.931Z,14.80
2022-10-22T17:19:40.632Z,14.23
2022-10-22T17:22:07.412Z,12.81
2022-10-22T17:24:34.312Z,13.60
2022-10-22T17:27:01.420Z,13.72
2022-10-22T17:29:28.277Z,13.93
2022-10-22T17:31:55.070Z,12.88
2022-10-22T17:34:21.877Z,12.69
2022-10-22T17:36:48.635Z,13.43
2022-10-22T17:39:18.079Z,13.42
2022-10-22T17:41:45.174Z,12.65
2022-10-22T17:44:13.538Z,11.44
2022-10-22T17:46:40.878Z,12.81
2022-10-22T17:49:15.292Z,13.01
2022-10-22T17:51:42.353Z,12.93
2022-10-22T17:54:10.236Z,11.78
2022-10-22T17:56:37.336Z,11.92
2022-10-22T17:59:04.505Z,11.64
2022-10-22T18:01:34.581Z,13.10
2022-10-22T18:04:07.399Z,12.92
2022-10-22T18:06:37.164Z,10.92
2022-10-22T18:09:10.725Z,12.75
2022-10-22T18:11:39.255Z,12.16
2022-10-22T18:14:06.402Z,10.81
2022-10-22T18:16:33.325Z,10.71
2022-10-22T18:19:00.970Z,10.53
2022-10-22T18:21:30.209Z,12.60
2022-10-22T18:23:59.155Z,12.14
2022-10-22T18:26:27.047Z,12.19
2022-10-22T18:28:54.766Z,12.29
2022-10-22T18:31:23.938Z,11.75
2022-10-22T18:33:51.017Z,12.04
2022-10-22T18:36:21.339Z,11.39
2022-10-22T18:38:56.419Z,12.12
2022-10-22T18:41:23.894Z,11.10
2022-10-22T18:43:56.174Z,10.85
2022-10-22T18:46:23.937Z,11.89
2022-10-22T18:48:53.368Z,10.10
2022-10-22T18:51:20.940Z,11.35
2022-10-22T18:54:04.522Z,11.29
2022-10-22T18:56:39.755Z,12.15
2022-10-22T18:59:06.754Z,11.23
2022-10-22T19:01:33.633Z,11.27
2022-10-22T19:04:00.577Z,10.66
2022-10-22T19:06:33.320Z,11.76
2022-10-22T19:09:04.487Z,11.43
2022-10-22T19:11:32.084Z,11.66
2022-10-22T19:13:58.874Z,10.47
2022-10-22T19:16:26.257Z,11.71
2022-10-22T19:18:58.878Z,11.10
2022-10-22T19:21:25.757Z,10.48
2022-10-22T19:23:55.550Z,10.11
2022-10-22T19:26:22.376Z,9.51
2022-10-22T19:28:49.257Z,10.04
2022-10-22T19:31:20.159Z,10.94
2022-10-22T19:33:47.326Z,9.65
2022-10-22T19:36:16.879Z,10.03
2022-10-22T19:38:48.933Z,10.33
2022-10-22T19:41:19.070Z,9.47
2022-10-22T19:43:49.393Z,10.72
2022-10-22T19:46:17.799Z,10.62
2022-10-22T19:51:20.285Z,10.03
2022-10-22T19:53:48.612Z,10.44
2022-10-22T19:56:18.997Z,10.16
2022-10-22T19:58:46.575Z,9.91
2022-10-22T20:01:16.118Z,10.77
2022-10-22T20:03:43.040Z,9.44
2022-10-22T20:06:12.215Z,8.97
2022-10-22T20:08:39.371Z,10.06
2022-10-22T20:11:11.830Z,9.77
2022-10-22T20:16:06.963Z,10.04
2022-10-22T20:18:34.275Z,9.25
2022-10-22T20:21:08.779Z,9.72
2022-10-22T20:23:35.593Z,8.87
2022-10-22T20:26:02.359Z,8.95
2022-10-22T20:28:29.455Z,9.51
2022-10-22T20:30:56.432Z,8.65
2022-10-22T20:33:23.526Z,8.55
2022-10-22T20:36:05.837Z,9.79
2022-10-22T20:38:33.190Z,9.75
2022-10-22T20:41:02.361Z,8.38
2022-10-22T20:43:29.258Z,9.78
2022-10-22T20:45:56.249Z,9.87
2022-10-22T20:48:24.376Z,9.92
2022-10-22T20:50:51.196Z,8.54
2022-10-22T20:53:17.994Z,7.74
2022-10-22T20:55:45.094Z,8.01
2022-10-22T20:58:11.998Z,8.55
2022-10-22T21:00:38.887Z,8.86
2022-10-22T21:03:06.712Z,7.92
2022-10-22T21:05:33.889Z,8.68
2022-10-22T21:08:00.837Z,8.20
2022-10-22T21:10:32.387Z,9.08
2022-10-22T21:13:00.125Z,8.45
2022-10-22T21:15:27.153Z,7.66
2022-10-22T21:17:54.242Z,7.96
2022-10-22T21:20:23.889Z,7.60
2022-10-22T21:22:51.619Z,7.72
2022-10-22T21:25:18.492Z,8.79
2022-10-22T21:27:45.477Z,8.77
2022-10-22T21:30:13.212Z,8.96
2022-10-22T21:32:40.269Z,8.17
2022-10-22T21:35:07.859Z,9.71
2022-10-22T21:37:34.655Z,9.43
2022-10-22T21:40:02.270Z,7.82
2022-10-22T21:42:29.353Z,8.08
2022-10-22T21:44:56.147Z,7.90
2022-10-22T21:47:23.243Z,8.11
2022-10-22T21:49:50.210Z,8.09
2022-10-22T21:52:16.912Z,8.06
2022-10-22T21:54:43.957Z,7.97
2022-10-22T21:57:10.757Z,8.34
2022-10-22T21:59:37.514Z,8.05
2022-10-22T22:02:05.929Z,8.10
2022-10-22T22:04:33.405Z,9.28
2022-10-22T22:07:00.250Z,8.39
2022-10-22T22:09:27.165Z,7.55
2022-10-22T22:11:53.949Z,7.11
2022-10-22T22:14:20.726Z,7.36
2022-10-22T22:16:47.596Z,8.90
2022-10-22T22:19:14.516Z,7.35
2022-10-22T22:21:41.873Z,8.57
2022-10-22T22:24:11.513Z,8.57
2022-10-22T22:26:38.438Z,7.24
2022-10-22T22:29:05.954Z,8.28
2022-10-22T22:31:34.413Z,8.29
2022-10-22T22:34:05.432Z,8.24
2022-10-22T22:36:35.216Z,8.08
2022-10-22T22:39:03.481Z,6.56
2022-10-22T22:41:30.639Z,7.94
2022-10-22T22:43:57.558Z,8.47
2022-10-22T22:46:24.314Z,7.74
2022-10-22T22:48:51.898Z,7.15
2022-10-22T22:51:19.014Z,8.53
2022-10-22T22:53:46.271Z,8.54
2022-10-22T22:56:14.850Z,8.54
2022-10-22T22:58:42.356Z,8.62
2022-10-22T23:01:30.877Z,8.61
2022-10-22T23:04:00.052Z,8.64
2022-10-22T23:06:29.798Z,8.61
2022-10-22T23:08:57.962Z,8.59
2022-10-22T23:11:26.230Z,8.68
2022-10-22T23:13:56.197Z,6.75
2022-10-22T23:16:25.772Z,7.32
2022-10-22T23:18:53.833Z,7.84
2022-10-22T23:21:26.517Z,7.28
2022-10-22T23:23:58.793Z,8.44
2022-10-22T23:26:28.632Z,8.30
2022-10-22T23:28:59.598Z,8.34
2022-10-22T23:31:26.996Z,7.10
2022-10-22T23:33:53.932Z,7.30
2022-10-22T23:36:20.931Z,7.03
2022-10-22T23:38:47.996Z,7.34
2022-10-22T23:41:15.123Z,8.41
2022-10-22T23:43:41.969Z,7.12
2022-10-22T23:46:11.678Z,6.59
2022-10-22T23:48:39.430Z,6.57
2022-10-22T23:51:07.140Z,7.49
2022-10-22T23:53:34.157Z,7.05
2022-10-22T23:56:10.291Z,7.44
2022-10-22T23:58:37.513Z,6.51
